sensor_id;sensor_type;location;lat;lon;timestamp;pressure;altitude;pressure_sealevel;temperature;humidity
72226;BME280;60130;52.250;5.048;2022-10-15T00:00:00;1007.2;;;13.6;86.6
72226;BME280;60130;52.250;5.048;2022-10-15T00:05:00;1007.1;;;13.7;86.6
72226;BME280;60130;52.250;5.048;2022-10-15T00:10:00;1007.1;;;13.7;86.6
72226;BME280;60130;52.250;5.048;2022-10-15T00:15:00;1007.0;;;13.7;86.9
72226;BME280;60130;52.250;5.048;2022-10-15T00:20:00;1007.0;;;13.6;87.2
72226;BME280;60130;52.250;5.048;2022-10-15T00:25:00;1007.0;;;13.6;87.5
72226;BME280;60130;52.250;5.048;2022-10-15T00:30:00;1007.0;;;13.7;87.2
72226;BME280;60130;52.250;5.048;2022-10-15T00:35:00;1007.0;;;13.5;87.4
72226;BME280;60130;52.250;5.048;2022-10-15T00:40:00;1007.0;;;13.5;87.7
72226;BME280;60130;52.250;5.048;2022-10-15T00:45:00;1006.9;;;13.4;87.9
72226;BME280;60130;52.250;5.048;2022-10-15T00:50:03;1007.0;;;13.3;88.5
72226;BME280;60130;52.250;5.048;2022-10-15T00:55:05;1007.0;;;13.3;88.4
72226;BME280;60130;52.250;5.048;2022-10-15T01:00:03;1007.0;;;13.2;88.5
72226;BME280;60130;52.250;5.048;2022-10-15T01:05:00;1006.9;;;13.2;88.8
72226;BME280;60130;52.250;5.048;2022-10-15T01:10:01;1006.9;;;13.3;88.5
72226;BME280;60130;52.250;5.048;2022-10-15T01:15:04;1006.9;;;13.2;88.9
72226;BME280;60130;52.250;5.048;2022-10-15T01:25:09;1006.8;;;13.2;88.8
72226;BME280;60130;52.250;5.048;2022-10-15T01:30:13;1006.8;;;13.3;88.6
72226;BME280;60130;52.250;5.048;2022-10-15T01:35:08;1006.8;;;13.4;88.4
72226;BME280;60130;52.250;5.048;2022-10-15T01:40:04;1006.7;;;13.4;88.9
72226;BME280;60130;52.250;5.048;2022-10-15T01:45:05;1006.7;;;13.5;88.7
72226;BME280;60130;52.250;5.048;2022-10-15T01:50:01;1006.6;;;13.5;88.7
72226;BME280;60130;52.250;5.048;2022-10-15T01:55:02;1006.5;;;13.5;88.8
72226;BME280;60130;52.250;5.048;2022-10-15T02:00:00;1006.5;;;13.5;88.7
72226;BME280;60130;52.250;5.048;2022-10-15T02:05:00;1006.5;;;13.4;88.8
72226;BME280;60130;52.250;5.048;2022-10-15T02:10:08;1006.4;;;13.3;89.2
72226;BME280;60130;52.250;5.048;2022-10-15T02:15:06;1006.4;;;13.3;89.3
72226;BME280;60130;52.250;5.048;2022-10-15T02:20:04;1006.3;;;13.4;89.3
72226;BME280;60130;52.250;5.048;2022-10-15T02:25:05;1006.3;;;13.4;89.5
72226;BME280;60130;52.250;5.048;2022-10-15T02:30:02;1006.2;;;13.4;89.3
72226;BME280;60130;52.250;5.048;2022-10-15T02:35:00;1006.2;;;13.5;89.4
72226;BME280;60130;52.250;5.048;2022-10-15T02:40:00;1006.2;;;13.6;89.3
72226;BME280;60130;52.250;5.048;2022-10-15T02:45:00;1006.2;;;13.6;89.3
72226;BME280;60130;52.250;5.048;2022-10-15T02:50:00;1006.2;;;13.6;89.3
72226;BME280;60130;52.250;5.048;2022-10-15T02:55:00;1006.0;;;13.5;89.3
72226;BME280;60130;52.250;5.048;2022-10-15T03:00:00;1006.0;;;13.5;89.2
72226;BME280;60130;52.250;5.048;2022-10-15T03:05:00;1005.9;;;13.3;89.4
72226;BME280;60130;52.250;5.048;2022-10-15T03:10:00;1005.9;;;13.2;90.1
72226;BME280;60130;52.250;5.048;2022-10-15T03:15:00;1005.8;;;13.1;90.1
72226;BME280;60130;52.250;5.048;2022-10-15T03:20:00;1005.8;;;13.1;90.0
72226;BME280;60130;52.250;5.048;2022-10-15T03:25:00;1005.8;;;13.0;90.7
72226;BME280;60130;52.250;5.048;2022-10-15T03:30:00;1005.8;;;12.9;90.7
72226;BME280;60130;52.250;5.048;2022-10-15T03:35:00;1005.8;;;12.9;90.8
72226;BME280;60130;52.250;5.048;2022-10-15T03:40:00;1005.8;;;12.9;91.1
72226;BME280;60130;52.250;5.048;2022-10-15T03:45:00;1005.7;;;12.8;90.9
72226;BME280;60130;52.250;5.048;2022-10-15T03:50:00;1005.8;;;12.9;90.6
72226;BME280;60130;52.250;5.048;2022-10-15T03:55:00;1005.8;;;12.8;91.1
72226;BME280;60130;52.250;5.048;2022-10-15T04:00:00;1005.8;;;12.8;91.1
72226;BME280;60130;52.250;5.048;2022-10-15T04:05:00;1005.8;;;12.8;91.2
72226;BME280;60130;52.250;5.048;2022-10-15T04:10:00;1005.8;;;12.8;91.3
72226;BME280;60130;52.250;5.048;2022-10-15T04:15:00;1005.8;;;12.8;91.6
72226;BME280;60130;52.250;5.048;2022-10-15T04:20:00;1005.8;;;12.8;91.8
72226;BME280;60130;52.250;5.048;2022-10-15T04:25:00;1005.9;;;12.8;91.7
72226;BME280;60130;52.250;5.048;2022-10-15T04:30:00;1005.9;;;12.8;91.6
72226;BME280;60130;52.250;5.048;2022-10-15T04:35:00;1005.8;;;12.9;91.7
72226;BME280;60130;52.250;5.048;2022-10-15T04:40:00;1005.9;;;13.0;92.3
72226;BME280;60130;52.250;5.048;2022-10-15T04:45:00;1005.9;;;13.1;92.1
72226;BME280;60130;52.250;5.048;2022-10-15T04:50:00;1005.9;;;13.2;92.1
72226;BME280;60130;52.250;5.048;2022-10-15T04:55:00;1005.9;;;13.2;91.9
72226;BME280;60130;52.250;5.048;2022-10-15T05:00:00;1005.9;;;13.3;91.9
72226;BME280;60130;52.250;5.048;2022-10-15T05:05:00;1005.8;;;13.3;91.8
72226;BME280;60130;52.250;5.048;2022-10-15T05:10:00;1005.8;;;13.5;91.5
72226;BME280;60130;52.250;5.048;2022-10-15T05:15:00;1005.8;;;13.5;91.5
72226;BME280;60130;52.250;5.048;2022-10-15T05:20:00;1005.8;;;13.5;91.4
72226;BME280;60130;52.250;5.048;2022-10-15T05:25:00;1005.8;;;13.5;91.2
72226;BME280;60130;52.250;5.048;2022-10-15T05:30:00;1005.8;;;13.4;91.3
72226;BME280;60130;52.250;5.048;2022-10-15T05:35:00;1005.8;;;13.4;91.3
72226;BME280;60130;52.250;5.048;2022-10-15T05:40:00;1005.7;;;13.4;91.2
72226;BME280;60130;52.250;5.048;2022-10-15T05:45:00;1005.7;;;13.3;91.5
72226;BME280;60130;52.250;5.048;2022-10-15T05:50:00;1005.7;;;13.3;91.7
72226;BME280;60130;52.250;5.048;2022-10-15T05:55:00;1005.7;;;13.3;91.9
72226;BME280;60130;52.250;5.048;2022-10-15T06:00:00;1005.7;;;13.3;92.0
72226;BME280;60130;52.250;5.048;2022-10-15T06:05:00;1005.7;;;13.3;92.0
72226;BME280;60130;52.250;5.048;2022-10-15T06:10:00;1005.8;;;13.3;91.9
72226;BME280;60130;52.250;5.048;2022-10-15T06:15:00;1005.7;;;13.3;91.8
72226;BME280;60130;52.250;5.048;2022-10-15T06:20:00;1005.7;;;13.2;92.3
72226;BME280;60130;52.250;5.048;2022-10-15T06:25:00;1005.7;;;13.3;92.1
72226;BME280;60130;52.250;5.048;2022-10-15T06:30:00;1005.7;;;13.3;92.2
72226;BME280;60130;52.250;5.048;2022-10-15T06:35:00;1005.7;;;13.3;92.4
72226;BME280;60130;52.250;5.048;2022-10-15T06:40:00;1005.7;;;13.2;92.7
72226;BME280;60130;52.250;5.048;2022-10-15T06:45:00;1005.7;;;13.3;92.6
72226;BME280;60130;52.250;5.048;2022-10-15T06:50:00;1005.7;;;13.4;92.1
72226;BME280;60130;52.250;5.048;2022-10-15T06:55:00;1005.7;;;13.4;92.3
72226;BME280;60130;52.250;5.048;2022-10-15T07:00:00;1005.8;;;13.5;91.9
72226;BME280;60130;52.250;5.048;2022-10-15T07:05:00;1005.8;;;13.5;91.8
72226;BME280;60130;52.250;5.048;2022-10-15T07:10:00;1005.8;;;13.5;91.9
72226;BME280;60130;52.250;5.048;2022-10-15T07:15:00;1005.8;;;13.7;91.6
72226;BME280;60130;52.250;5.048;2022-10-15T07:20:00;1005.8;;;13.8;91.4
72226;BME280;60130;52.250;5.048;2022-10-15T07:25:00;1005.8;;;13.9;91.6
72226;BME280;60130;52.250;5.048;2022-10-15T07:30:00;1005.8;;;13.8;91.6
72226;BME280;60130;52.250;5.048;2022-10-15T07:35:00;1005.8;;;13.9;91.5
72226;BME280;60130;52.250;5.048;2022-10-15T07:40:00;1005.7;;;13.9;91.6
72226;BME280;60130;52.250;5.048;2022-10-15T07:45:00;1005.8;;;14.0;91.4
72226;BME280;60130;52.250;5.048;2022-10-15T07:50:00;1005.8;;;14.0;91.3
72226;BME280;60130;52.250;5.048;2022-10-15T07:55:00;1005.7;;;13.9;91.7
72226;BME280;60130;52.250;5.048;2022-10-15T08:00:00;1005.6;;;14.0;91.6
72226;BME280;60130;52.250;5.048;2022-10-15T08:05:00;1005.5;;;14.0;91.4
72226;BME280;60130;52.250;5.048;2022-10-15T08:10:00;1005.5;;;14.0;91.3
72226;BME280;60130;52.250;5.048;2022-10-15T08:15:00;1005.6;;;14.1;90.9
72226;BME280;60130;52.250;5.048;2022-10-15T08:20:00;1005.7;;;14.2;90.5
72226;BME280;60130;52.250;5.048;2022-10-15T08:25:00;1005.6;;;14.3;90.1
72226;BME280;60130;52.250;5.048;2022-10-15T08:30:00;1005.5;;;14.4;89.9
72226;BME280;60130;52.250;5.048;2022-10-15T08:35:00;1005.5;;;14.3;89.8
72226;BME280;60130;52.250;5.048;2022-10-15T08:40:00;1005.4;;;14.3;90.0
72226;BME280;60130;52.250;5.048;2022-10-15T08:45:02;1005.4;;;14.5;89.5
72226;BME280;60130;52.250;5.048;2022-10-15T08:50:02;1005.3;;;14.8;88.7
72226;BME280;60130;52.250;5.048;2022-10-15T08:55:01;1005.2;;;15.3;87.7
72226;BME280;60130;52.250;5.048;2022-10-15T09:00:03;1005.2;;;15.9;86.7
72226;BME280;60130;52.250;5.048;2022-10-15T09:05:02;1005.1;;;15.9;86.0
72226;BME280;60130;52.250;5.048;2022-10-15T09:10:05;1005.2;;;16.1;85.4
72226;BME280;60130;52.250;5.048;2022-10-15T09:15:02;1005.2;;;16.0;85.0
72226;BME280;60130;52.250;5.048;2022-10-15T09:20:03;1005.2;;;15.8;84.8
72226;BME280;60130;52.250;5.048;2022-10-15T09:25:06;1005.2;;;15.9;85.4
72226;BME280;60130;52.250;5.048;2022-10-15T09:30:03;1005.2;;;16.0;84.5
72226;BME280;60130;52.250;5.048;2022-10-15T09:35:04;1005.1;;;16.1;84.3
72226;BME280;60130;52.250;5.048;2022-10-15T09:40:08;1005.1;;;15.9;84.7
72226;BME280;60130;52.250;5.048;2022-10-15T09:45:04;1004.8;;;15.6;85.5
72226;BME280;60130;52.250;5.048;2022-10-15T09:50:00;1004.9;;;15.7;86.9
72226;BME280;60130;52.250;5.048;2022-10-15T09:55:06;1004.9;;;15.8;87.4
72226;BME280;60130;52.250;5.048;2022-10-15T10:00:04;1004.9;;;15.7;87.7
72226;BME280;60130;52.250;5.048;2022-10-15T10:05:18;1004.8;;;15.7;87.6
72226;BME280;60130;52.250;5.048;2022-10-15T10:10:02;1004.7;;;15.5;87.8
72226;BME280;60130;52.250;5.048;2022-10-15T10:15:03;1004.7;;;15.9;88.3
72226;BME280;60130;52.250;5.048;2022-10-15T10:20:08;1004.7;;;16.0;88.0
72226;BME280;60130;52.250;5.048;2022-10-15T10:30:01;1004.7;;;15.9;88.6
72226;BME280;60130;52.250;5.048;2022-10-15T10:35:02;1004.7;;;16.0;89.3
72226;BME280;60130;52.250;5.048;2022-10-15T10:40:00;1004.7;;;16.0;89.1
72226;BME280;60130;52.250;5.048;2022-10-15T10:45:19;1004.7;;;15.8;89.7
72226;BME280;60130;52.250;5.048;2022-10-15T10:50:00;1004.7;;;15.9;89.7
72226;BME280;60130;52.250;5.048;2022-10-15T10:55:01;1004.6;;;16.0;89.4
72226;BME280;60130;52.250;5.048;2022-10-15T11:00:02;1004.6;;;15.8;89.3
72226;BME280;60130;52.250;5.048;2022-10-15T11:05:00;1004.6;;;15.9;90.0
72226;BME280;60130;52.250;5.048;2022-10-15T11:10:05;1004.5;;;16.0;90.0
72226;BME280;60130;52.250;5.048;2022-10-15T11:15:10;1004.5;;;15.8;90.1
72226;BME280;60130;52.250;5.048;2022-10-15T11:20:04;1004.4;;;15.8;90.4
72226;BME280;60130;52.250;5.048;2022-10-15T11:25:05;1004.4;;;15.8;90.3
72226;BME280;60130;52.250;5.048;2022-10-15T11:30:03;1004.3;;;15.8;90.4
72226;BME280;60130;52.250;5.048;2022-10-15T11:35:13;1004.3;;;15.8;90.4
72226;BME280;60130;52.250;5.048;2022-10-15T11:40:11;1004.3;;;15.8;90.5
72226;BME280;60130;52.250;5.048;2022-10-15T11:45:07;1004.3;;;15.7;90.8
72226;BME280;60130;52.250;5.048;2022-10-15T11:50:12;1004.2;;;15.6;91.2
72226;BME280;60130;52.250;5.048;2022-10-15T11:55:03;1004.2;;;15.7;91.0
72226;BME280;60130;52.250;5.048;2022-10-15T12:00:03;1004.1;;;15.8;91.3
72226;BME280;60130;52.250;5.048;2022-10-15T12:05:04;1004.2;;;15.8;91.4
72226;BME280;60130;52.250;5.048;2022-10-15T12:10:08;1004.2;;;15.9;91.2
72226;BME280;60130;52.250;5.048;2022-10-15T12:15:11;1004.2;;;15.9;91.5
72226;BME280;60130;52.250;5.048;2022-10-15T12:20:07;1004.2;;;15.9;91.5
72226;BME280;60130;52.250;5.048;2022-10-15T12:25:00;1004.2;;;16.0;91.4
72226;BME280;60130;52.250;5.048;2022-10-15T12:30:11;1004.3;;;16.1;91.5
72226;BME280;60130;52.250;5.048;2022-10-15T12:35:02;1004.3;;;16.2;91.6
72226;BME280;60130;52.250;5.048;2022-10-15T12:40:02;1004.3;;;16.1;91.5
72226;BME280;60130;52.250;5.048;2022-10-15T12:45:02;1004.3;;;16.2;91.8
72226;BME280;60130;52.250;5.048;2022-10-15T12:50:15;1004.3;;;16.3;91.3
72226;BME280;60130;52.250;5.048;2022-10-15T12:55:17;1004.3;;;16.3;91.1
72226;BME280;60130;52.250;5.048;2022-10-15T13:00:01;1004.3;;;16.5;90.7
72226;BME280;60130;52.250;5.048;2022-10-15T13:05:00;1004.3;;;16.5;90.4
72226;BME280;60130;52.250;5.048;2022-10-15T13:10:01;1004.4;;;16.5;90.5
72226;BME280;60130;52.250;5.048;2022-10-15T13:15:02;1004.3;;;16.7;90.1
72226;BME280;60130;52.250;5.048;2022-10-15T13:20:04;1004.4;;;17.1;89.1
72226;BME280;60130;52.250;5.048;2022-10-15T13:25:00;1004.4;;;17.2;88.5
72226;BME280;60130;52.250;5.048;2022-10-15T13:30:03;1004.4;;;17.4;87.5
72226;BME280;60130;52.250;5.048;2022-10-15T13:35:02;1004.5;;;17.4;87.0
72226;BME280;60130;52.250;5.048;2022-10-15T13:40:01;1004.4;;;17.7;86.4
72226;BME280;60130;52.250;5.048;2022-10-15T13:45:02;1004.5;;;17.4;85.8
72226;BME280;60130;52.250;5.048;2022-10-15T13:50:15;1004.6;;;17.4;85.2
72226;BME280;60130;52.250;5.048;2022-10-15T13:55:00;1004.6;;;17.3;84.8
72226;BME280;60130;52.250;5.048;2022-10-15T14:00:00;1004.7;;;17.6;84.4
72226;BME280;60130;52.250;5.048;2022-10-15T14:05:17;1004.7;;;17.6;82.6
72226;BME280;60130;52.250;5.048;2022-10-15T14:10:00;1004.7;;;17.3;78.6
72226;BME280;60130;52.250;5.048;2022-10-15T14:20:03;1004.8;;;17.3;77.7
72226;BME280;60130;52.250;5.048;2022-10-15T14:25:07;1004.8;;;17.3;78.1
72226;BME280;60130;52.250;5.048;2022-10-15T14:30:00;1004.9;;;17.3;77.5
72226;BME280;60130;52.250;5.048;2022-10-15T14:35:01;1005.0;;;17.2;76.0
72226;BME280;60130;52.250;5.048;2022-10-15T14:40:07;1005.1;;;17.2;76.3
72226;BME280;60130;52.250;5.048;2022-10-15T14:45:11;1005.2;;;17.1;77.5
72226;BME280;60130;52.250;5.048;2022-10-15T14:50:00;1005.2;;;17.0;77.3
72226;BME280;60130;52.250;5.048;2022-10-15T14:55:02;1005.3;;;17.0;77.1
72226;BME280;60130;52.250;5.048;2022-10-15T15:00:00;1005.3;;;16.8;77.4
72226;BME280;60130;52.250;5.048;2022-10-15T15:05:07;1005.4;;;16.8;77.5
72226;BME280;60130;52.250;5.048;2022-10-15T15:10:00;1005.5;;;16.7;78.2
72226;BME280;60130;52.250;5.048;2022-10-15T15:15:00;1005.6;;;16.8;78.1
72226;BME280;60130;52.250;5.048;2022-10-15T15:20:00;1005.5;;;16.6;78.8
72226;BME280;60130;52.250;5.048;2022-10-15T15:25:03;1005.4;;;16.5;79.0
72226;BME280;60130;52.250;5.048;2022-10-15T15:30:00;1005.5;;;16.3;79.5
72226;BME280;60130;52.250;5.048;2022-10-15T15:35:00;1005.5;;;16.2;78.8
72226;BME280;60130;52.250;5.048;2022-10-15T15:40:00;1005.6;;;16.3;78.6
72226;BME280;60130;52.250;5.048;2022-10-15T15:45:00;1005.6;;;16.4;78.5
72226;BME280;60130;52.250;5.048;2022-10-15T15:50:00;1005.6;;;16.3;79.4
72226;BME280;60130;52.250;5.048;2022-10-15T15:55:00;1005.6;;;16.0;80.3
72226;BME280;60130;52.250;5.048;2022-10-15T16:00:00;1005.7;;;15.9;79.4
72226;BME280;60130;52.250;5.048;2022-10-15T16:05:00;1005.8;;;15.7;80.3
72226;BME280;60130;52.250;5.048;2022-10-15T16:10:00;1005.8;;;15.6;80.3
72226;BME280;60130;52.250;5.048;2022-10-15T16:15:00;1005.8;;;15.5;80.0
72226;BME280;60130;52.250;5.048;2022-10-15T16:20:00;1005.9;;;15.3;80.2
72226;BME280;60130;52.250;5.048;2022-10-15T16:25:00;1005.9;;;15.2;79.9
72226;BME280;60130;52.250;5.048;2022-10-15T16:30:00;1006.0;;;15.0;80.1
72226;BME280;60130;52.250;5.048;2022-10-15T16:35:00;1006.0;;;14.9;79.3
72226;BME280;60130;52.250;5.048;2022-10-15T16:40:00;1006.0;;;14.9;79.1
72226;BME280;60130;52.250;5.048;2022-10-15T16:45:00;1006.0;;;14.8;79.3
72226;BME280;60130;52.250;5.048;2022-10-15T16:50:00;1006.1;;;14.7;79.3
72226;BME280;60130;52.250;5.048;2022-10-15T16:55:00;1006.1;;;14.7;79.3
72226;BME280;60130;52.250;5.048;2022-10-15T17:00:00;1006.2;;;14.6;79.2
72226;BME280;60130;52.250;5.048;2022-10-15T17:05:00;1006.2;;;14.6;79.3
72226;BME280;60130;52.250;5.048;2022-10-15T17:10:00;1006.4;;;14.6;79.0
72226;BME280;60130;52.250;5.048;2022-10-15T17:15:00;1006.5;;;14.6;79.6
72226;BME280;60130;52.250;5.048;2022-10-15T17:20:00;1006.5;;;14.6;79.3
72226;BME280;60130;52.250;5.048;2022-10-15T17:25:00;1006.6;;;14.6;79.3
72226;BME280;60130;52.250;5.048;2022-10-15T17:30:00;1006.7;;;14.5;80.1
72226;BME280;60130;52.250;5.048;2022-10-15T17:35:00;1006.7;;;14.4;80.8
72226;BME280;60130;52.250;5.048;2022-10-15T17:40:00;1006.7;;;14.3;81.3
72226;BME280;60130;52.250;5.048;2022-10-15T17:45:00;1006.7;;;14.2;82.1
72226;BME280;60130;52.250;5.048;2022-10-15T17:50:00;1006.8;;;14.2;82.7
72226;BME280;60130;52.250;5.048;2022-10-15T17:55:00;1007.0;;;14.4;82.6
72226;BME280;60130;52.250;5.048;2022-10-15T18:00:00;1006.9;;;14.4;83.0
72226;BME280;60130;52.250;5.048;2022-10-15T18:05:00;1006.9;;;14.5;82.6
72226;BME280;60130;52.250;5.048;2022-10-15T18:10:00;1007.0;;;14.5;82.6
72226;BME280;60130;52.250;5.048;2022-10-15T18:15:00;1007.0;;;14.6;82.3
72226;BME280;60130;52.250;5.048;2022-10-15T18:20:00;1007.1;;;14.7;81.2
72226;BME280;60130;52.250;5.048;2022-10-15T18:25:00;1007.2;;;14.9;80.5
72226;BME280;60130;52.250;5.048;2022-10-15T18:30:00;1007.1;;;14.9;80.3
72226;BME280;60130;52.250;5.048;2022-10-15T18:35:00;1007.2;;;14.9;80.4
72226;BME280;60130;52.250;5.048;2022-10-15T18:40:00;1007.2;;;14.9;80.1
72226;BME280;60130;52.250;5.048;2022-10-15T18:45:00;1007.2;;;15.0;80.0
72226;BME280;60130;52.250;5.048;2022-10-15T18:50:00;1007.3;;;14.9;80.4
72226;BME280;60130;52.250;5.048;2022-10-15T18:55:00;1007.2;;;14.9;80.8
72226;BME280;60130;52.250;5.048;2022-10-15T19:00:00;1007.2;;;14.9;80.6
72226;BME280;60130;52.250;5.048;2022-10-15T19:05:00;1007.2;;;15.0;80.3
72226;BME280;60130;52.250;5.048;2022-10-15T19:10:00;1007.2;;;15.0;80.1
72226;BME280;60130;52.250;5.048;2022-10-15T19:15:00;1007.2;;;15.1;79.2
72226;BME280;60130;52.250;5.048;2022-10-15T19:20:00;1007.2;;;15.1;79.4
72226;BME280;60130;52.250;5.048;2022-10-15T19:25:00;1007.2;;;15.1;79.0
72226;BME280;60130;52.250;5.048;2022-10-15T19:30:00;1007.3;;;15.0;78.7
72226;BME280;60130;52.250;5.048;2022-10-15T19:35:00;1007.4;;;15.1;78.6
72226;BME280;60130;52.250;5.048;2022-10-15T19:40:00;1007.4;;;15.0;78.2
72226;BME280;60130;52.250;5.048;2022-10-15T19:45:00;1007.5;;;15.0;78.1
72226;BME280;60130;52.250;5.048;2022-10-15T19:50:00;1007.6;;;14.9;78.9
72226;BME280;60130;52.250;5.048;2022-10-15T19:55:00;1007.6;;;14.9;78.9
72226;BME280;60130;52.250;5.048;2022-10-15T20:00:00;1007.6;;;14.8;79.2
72226;BME280;60130;52.250;5.048;2022-10-15T20:05:00;1007.6;;;14.8;79.4
72226;BME280;60130;52.250;5.048;2022-10-15T20:10:00;1007.6;;;14.7;79.7
72226;BME280;60130;52.250;5.048;2022-10-15T20:15:00;1007.6;;;14.7;79.7
72226;BME280;60130;52.250;5.048;2022-10-15T20:20:00;1007.7;;;14.8;79.6
72226;BME280;60130;52.250;5.048;2022-10-15T20:25:00;1007.6;;;14.7;80.2
72226;BME280;60130;52.250;5.048;2022-10-15T20:30:00;1007.6;;;14.6;80.8
72226;BME280;60130;52.250;5.048;2022-10-15T20:35:00;1007.7;;;14.6;80.8
72226;BME280;60130;52.250;5.048;2022-10-15T20:40:00;1007.7;;;14.5;81.0
72226;BME280;60130;52.250;5.048;2022-10-15T20:45:00;1007.8;;;14.6;81.1
72226;BME280;60130;52.250;5.048;2022-10-15T20:50:00;1007.8;;;14.6;81.0
72226;BME280;60130;52.250;5.048;2022-10-15T20:55:00;1008.0;;;14.7;80.6
72226;BME280;60130;52.250;5.048;2022-10-15T21:00:00;1008.1;;;14.7;80.3
72226;BME280;60130;52.250;5.048;2022-10-15T21:05:00;1008.1;;;14.7;80.5
72226;BME280;60130;52.250;5.048;2022-10-15T21:10:00;1008.1;;;14.7;80.3
72226;BME280;60130;52.250;5.048;2022-10-15T21:15:00;1008.2;;;14.7;80.4
72226;BME280;60130;52.250;5.048;2022-10-15T21:20:00;1008.3;;;14.7;80.4
72226;BME280;60130;52.250;5.048;2022-10-15T21:25:00;1008.3;;;14.7;80.2
72226;BME280;60130;52.250;5.048;2022-10-15T21:30:00;1008.2;;;14.7;80.5
72226;BME280;60130;52.250;5.048;2022-10-15T21:35:00;1008.3;;;14.6;80.7
72226;BME280;60130;52.250;5.048;2022-10-15T21:40:00;1008.4;;;14.6;80.5
72226;BME280;60130;52.250;5.048;2022-10-15T21:45:00;1008.5;;;14.7;80.3
72226;BME280;60130;52.250;5.048;2022-10-15T21:50:00;1008.5;;;14.6;80.6
72226;BME280;60130;52.250;5.048;2022-10-15T21:55:00;1008.6;;;14.6;80.5
72226;BME280;60130;52.250;5.048;2022-10-15T22:00:00;1008.7;;;14.7;80.1
72226;BME280;60130;52.250;5.048;2022-10-15T22:05:00;1008.7;;;14.7;80.0
72226;BME280;60130;52.250;5.048;2022-10-15T22:10:00;1008.7;;;14.5;80.6
72226;BME280;60130;52.250;5.048;2022-10-15T22:15:00;1008.7;;;14.4;80.7
72226;BME280;60130;52.250;5.048;2022-10-15T22:20:00;1008.7;;;14.4;80.9
72226;BME280;60130;52.250;5.048;2022-10-15T22:25:00;1008.7;;;14.4;80.7
72226;BME280;60130;52.250;5.048;2022-10-15T22:30:00;1008.7;;;14.3;81.0
72226;BME280;60130;52.250;5.048;2022-10-15T22:35:00;1008.7;;;14.3;80.9
72226;BME280;60130;52.250;5.048;2022-10-15T22:40:00;1008.7;;;14.3;80.9
72226;BME280;60130;52.250;5.048;2022-10-15T22:45:00;1008.7;;;14.2;81.1
72226;BME280;60130;52.250;5.048;2022-10-15T22:50:00;1008.7;;;14.2;80.8
72226;BME280;60130;52.250;5.048;2022-10-15T22:55:00;1008.7;;;14.3;81.0
72226;BME280;60130;52.250;5.048;2022-10-15T23:00:00;1008.7;;;14.3;80.8
72226;BME280;60130;52.250;5.048;2022-10-15T23:05:00;1008.8;;;14.3;80.8
72226;BME280;60130;52.250;5.048;2022-10-15T23:10:00;1008.7;;;14.2;81.4
72226;BME280;60130;52.250;5.048;2022-10-15T23:15:00;1008.7;;;14.2;81.6
72226;BME280;60130;52.250;5.048;2022-10-15T23:20:01;1008.7;;;14.2;81.2
72226;BME280;60130;52.250;5.048;2022-10-15T23:25:00;1008.8;;;14.2;80.8
72226;BME280;60130;52.250;5.048;2022-10-15T23:30:00;1008.8;;;14.3;80.6
72226;BME280;60130;52.250;5.048;2022-10-15T23:35:00;1008.7;;;14.2;80.6
72226;BME280;60130;52.250;5.048;2022-10-15T23:40:00;1008.7;;;14.3;80.5
72226;BME280;60130;52.250;5.048;2022-10-15T23:45:00;1008.7;;;14.2;80.0
72226;BME280;60130;52.250;5.048;2022-10-15T23:50:00;1008.7;;;14.3;79.8
72226;BME280;60130;52.250;5.048;2022-10-15T23:55:00;1008.7;;;14.2;79.9
